sensor_id;sensor_type;location;lat;lon;timestamp;temperature;humidity
8402;DHT22;4238;48.404;9.498;2024-02-26T05:01:10;5.30;99.90
8402;DHT22;4238;48.404;9.498;2024-02-26T05:03:37;5.20;99.90
8402;DHT22;4238;48.404;9.498;2024-02-26T05:06:04;5.20;99.90
8402;DHT22;4238;48.404;9.498;2024-02-26T05:08:31;5.20;1.00
8402;DHT22;4238;48.404;9.498;2024-02-26T05:10:59;5.30;1.00
8402;DHT22;4238;48.404;9.498;2024-02-26T05:13:28;5.40;99.90
8402;DHT22;4238;48.404;9.498;2024-02-26T05:15:54;5.30;1.00
8402;DHT22;4238;48.404;9.498;2024-02-26T05:18:23;5.20;99.90
8402;DHT22;4238;48.404;9.498;2024-02-26T05:20:50;5.30;1.00
8402;DHT22;4238;48.404;9.498;2024-02-26T05:23:16;5.30;99.90
8402;DHT22;4238;48.404;9.498;2024-02-26T05:25:43;5.40;99.90
8402;DHT22;4238;48.404;9.498;2024-02-26T05:28:12;5.50;60.30
8402;DHT22;4238;48.404;9.498;2024-02-26T05:30:41;5.40;1.00
8402;DHT22;4238;48.404;9.498;2024-02-26T05:33:08;5.40;99.90
8402;DHT22;4238;48.404;9.498;2024-02-26T05:35:36;5.40;1.00
8402;DHT22;4238;48.404;9.498;2024-02-26T05:38:03;5.30;1.00
8402;DHT22;4238;48.404;9.498;2024-02-26T05:40:30;5.30;1.00
8402;DHT22;4238;48.404;9.498;2024-02-26T05:42:57;5.10;1.00
8402;DHT22;4238;48.404;9.498;2024-02-26T05:45:24;5.00;1.00
8402;DHT22;4238;48.404;9.498;2024-02-26T05:47:51;5.10;1.00
8402;DHT22;4238;48.404;9.498;2024-02-26T05:50:17;5.00;1.00
8402;DHT22;4238;48.404;9.498;2024-02-26T05:52:46;5.00;1.00
8402;DHT22;4238;48.404;9.498;2024-02-26T05:55:12;5.00;1.00
8402;DHT22;4238;48.404;9.498;2024-02-26T05:57:41;5.00;1.00
8402;DHT22;4238;48.404;9.498;2024-02-26T06:00:09;4.80;1.00
8402;DHT22;4238;48.404;9.498;2024-02-26T06:02:36;4.70;1.00
8402;DHT22;4238;48.404;9.498;2024-02-26T06:05:03;4.60;1.00
8402;DHT22;4238;48.404;9.498;2024-02-26T06:07:30;4.50;1.00
8402;DHT22;4238;48.404;9.498;2024-02-26T06:09:58;4.60;1.00
8402;DHT22;4238;48.404;9.498;2024-02-26T06:12:24;4.70;1.00
8402;DHT22;4238;48.404;9.498;2024-02-26T06:14:52;4.90;1.00
8402;DHT22;4238;48.404;9.498;2024-02-26T06:17:18;5.10;99.90
8402;DHT22;4238;48.404;9.498;2024-02-26T06:19:45;5.20;99.90
8402;DHT22;4238;48.404;9.498;2024-02-26T06:22:12;5.40;1.00
8402;DHT22;4238;48.404;9.498;2024-02-26T06:24:39;5.40;1.00
8402;DHT22;4238;48.404;9.498;2024-02-26T06:27:07;5.40;1.00
8402;DHT22;4238;48.404;9.498;2024-02-26T06:29:34;5.40;99.90
8402;DHT22;4238;48.404;9.498;2024-02-26T06:32:01;5.20;1.00
8402;DHT22;4238;48.404;9.498;2024-02-26T06:34:28;5.00;99.90
8402;DHT22;4238;48.404;9.498;2024-02-26T06:36:54;4.90;1.00
8402;DHT22;4238;48.404;9.498;2024-02-26T06:39:21;4.80;1.00
8402;DHT22;4238;48.404;9.498;2024-02-26T06:41:48;4.70;1.00
8402;DHT22;4238;48.404;9.498;2024-02-26T06:44:16;4.70;1.00
8402;DHT22;4238;48.404;9.498;2024-02-26T06:46:43;4.60;1.00
8402;DHT22;4238;48.404;9.498;2024-02-26T06:49:10;4.60;1.00
8402;DHT22;4238;48.404;9.498;2024-02-26T06:51:37;4.50;1.00
8402;DHT22;4238;48.404;9.498;2024-02-26T06:54:03;4.50;1.00
8402;DHT22;4238;48.404;9.498;2024-02-26T06:56:30;4.50;1.00
8402;DHT22;4238;48.404;9.498;2024-02-26T06:58:57;4.60;1.00
8402;DHT22;4238;48.404;9.498;2024-02-26T07:01:25;4.50;1.00
8402;DHT22;4238;48.404;9.498;2024-02-26T07:03:52;4.40;1.00
8402;DHT22;4238;48.404;9.498;2024-02-26T07:06:19;4.40;1.00
8402;DHT22;4238;48.404;9.498;2024-02-26T07:08:46;4.50;1.00
8402;DHT22;4238;48.404;9.498;2024-02-26T07:11:12;4.80;1.00
8402;DHT22;4238;48.404;9.498;2024-02-26T07:13:39;4.90;1.00
8402;DHT22;4238;48.404;9.498;2024-02-26T07:16:09;5.00;1.00
8402;DHT22;4238;48.404;9.498;2024-02-26T07:18:37;5.10;1.00
8402;DHT22;4238;48.404;9.498;2024-02-26T07:21:04;5.20;1.00
8402;DHT22;4238;48.404;9.498;2024-02-26T07:23:31;5.20;1.00
8402;DHT22;4238;48.404;9.498;2024-02-26T07:25:59;5.30;1.00
8402;DHT22;4238;48.404;9.498;2024-02-26T07:28:26;5.40;1.00
8402;DHT22;4238;48.404;9.498;2024-02-26T07:30:53;5.50;1.00
8402;DHT22;4238;48.404;9.498;2024-02-26T07:33:19;5.50;1.00
8402;DHT22;4238;48.404;9.498;2024-02-26T07:35:47;5.50;1.00
8402;DHT22;4238;48.404;9.498;2024-02-26T07:38:14;5.40;1.00
8402;DHT22;4238;48.404;9.498;2024-02-26T07:40:41;5.50;1.00
8402;DHT22;4238;48.404;9.498;2024-02-26T07:43:08;5.70;1.00
8402;DHT22;4238;48.404;9.498;2024-02-26T07:45:35;5.80;1.00
8402;DHT22;4238;48.404;9.498;2024-02-26T07:48:02;6.10;1.00
8402;DHT22;4238;48.404;9.498;2024-02-26T07:50:29;6.10;1.00
8402;DHT22;4238;48.404;9.498;2024-02-26T07:52:57;6.20;99.90
8402;DHT22;4238;48.404;9.498;2024-02-26T07:55:24;6.30;99.90
8402;DHT22;4238;48.404;9.498;2024-02-26T07:57:51;6.40;99.90
8402;DHT22;4238;48.404;9.498;2024-02-26T08:00:18;6.50;99.90
8402;DHT22;4238;48.404;9.498;2024-02-26T08:02:45;6.60;99.90
8402;DHT22;4238;48.404;9.498;2024-02-26T08:05:12;6.70;1.00
8402;DHT22;4238;48.404;9.498;2024-02-26T08:07:39;6.70;1.00
8402;DHT22;4238;48.404;9.498;2024-02-26T08:10:09;6.70;1.00
8402;DHT22;4238;48.404;9.498;2024-02-26T08:12:36;6.60;1.00
8402;DHT22;4238;48.404;9.498;2024-02-26T08:15:04;6.60;99.90
8402;DHT22;4238;48.404;9.498;2024-02-26T08:17:31;6.70;1.00
8402;DHT22;4238;48.404;9.498;2024-02-26T08:19:59;6.70;1.00
8402;DHT22;4238;48.404;9.498;2024-02-26T08:22:25;6.80;1.00
8402;DHT22;4238;48.404;9.498;2024-02-26T08:24:52;6.90;1.00
8402;DHT22;4238;48.404;9.498;2024-02-26T08:27:20;6.90;99.90
8402;DHT22;4238;48.404;9.498;2024-02-26T08:29:47;6.90;52.80
8402;DHT22;4238;48.404;9.498;2024-02-26T08:32:14;7.10;99.90
8402;DHT22;4238;48.404;9.498;2024-02-26T08:34:42;7.10;90.90
8402;DHT22;4238;48.404;9.498;2024-02-26T08:37:09;7.00;67.00
8402;DHT22;4238;48.404;9.498;2024-02-26T08:39:35;7.20;1.00
8402;DHT22;4238;48.404;9.498;2024-02-26T08:42:03;7.30;1.00
8402;DHT22;4238;48.404;9.498;2024-02-26T08:44:31;7.30;1.00
8402;DHT22;4238;48.404;9.498;2024-02-26T08:46:58;7.30;99.90
8402;DHT22;4238;48.404;9.498;2024-02-26T08:49:25;7.20;99.90
8402;DHT22;4238;48.404;9.498;2024-02-26T08:51:51;7.20;1.00
8402;DHT22;4238;48.404;9.498;2024-02-26T08:54:18;7.30;99.20
8402;DHT22;4238;48.404;9.498;2024-02-26T08:56:45;7.20;1.00
8402;DHT22;4238;48.404;9.498;2024-02-26T08:59:12;7.30;1.00
8402;DHT22;4238;48.404;9.498;2024-02-26T09:01:43;7.30;99.90
8402;DHT22;4238;48.404;9.498;2024-02-26T09:04:10;7.40;99.90
8402;DHT22;4238;48.404;9.498;2024-02-26T09:06:37;7.50;1.00
8402;DHT22;4238;48.404;9.498;2024-02-26T09:09:04;7.50;99.90
8402;DHT22;4238;48.404;9.498;2024-02-26T09:11:31;7.50;1.00
8402;DHT22;4238;48.404;9.498;2024-02-26T09:13:57;7.60;1.00
8402;DHT22;4238;48.404;9.498;2024-02-26T09:16:24;7.80;1.00
8402;DHT22;4238;48.404;9.498;2024-02-26T09:18:52;8.00;1.00
8402;DHT22;4238;48.404;9.498;2024-02-26T09:21:19;8.10;99.90
8402;DHT22;4238;48.404;9.498;2024-02-26T09:23:49;8.40;1.00
8402;DHT22;4238;48.404;9.498;2024-02-26T09:26:15;8.70;99.90
8402;DHT22;4238;48.404;9.498;2024-02-26T09:28:42;8.90;35.20
8402;DHT22;4238;48.404;9.498;2024-02-26T09:31:09;9.10;1.00
8402;DHT22;4238;48.404;9.498;2024-02-26T09:33:36;9.10;99.90
8402;DHT22;4238;48.404;9.498;2024-02-26T09:36:05;9.30;99.90
8402;DHT22;4238;48.404;9.498;2024-02-26T09:38:32;9.40;47.60
8402;DHT22;4238;48.404;9.498;2024-02-26T09:41:02;9.70;99.90
8402;DHT22;4238;48.404;9.498;2024-02-26T09:43:35;9.80;1.00
8402;DHT22;4238;48.404;9.498;2024-02-26T09:46:02;9.90;1.00
8402;DHT22;4238;48.404;9.498;2024-02-26T09:48:29;9.90;1.00
8402;DHT22;4238;48.404;9.498;2024-02-26T09:50:56;10.00;1.00
8402;DHT22;4238;48.404;9.498;2024-02-26T09:53:25;10.00;99.90
8402;DHT22;4238;48.404;9.498;2024-02-26T09:55:52;10.00;99.90
8402;DHT22;4238;48.404;9.498;2024-02-26T09:58:19;10.00;99.90
8402;DHT22;4238;48.404;9.498;2024-02-26T10:00:56;10.10;99.90
8402;DHT22;4238;48.404;9.498;2024-02-26T10:03:28;10.20;99.90
8402;DHT22;4238;48.404;9.498;2024-02-26T10:05:55;10.40;99.90
8402;DHT22;4238;48.404;9.498;2024-02-26T10:08:25;10.60;99.90
8402;DHT22;4238;48.404;9.498;2024-02-26T10:10:54;10.70;94.00
8402;DHT22;4238;48.404;9.498;2024-02-26T10:13:21;10.70;30.90
8402;DHT22;4238;48.404;9.498;2024-02-26T10:15:48;11.00;1.00
8402;DHT22;4238;48.404;9.498;2024-02-26T10:18:15;11.50;1.00
8402;DHT22;4238;48.404;9.498;2024-02-26T10:20:42;12.10;1.00
8402;DHT22;4238;48.404;9.498;2024-02-26T10:23:09;12.60;1.00
8402;DHT22;4238;48.404;9.498;2024-02-26T10:25:38;13.10;1.00
8402;DHT22;4238;48.404;9.498;2024-02-26T10:28:18;13.70;1.00
8402;DHT22;4238;48.404;9.498;2024-02-26T10:30:45;14.00;1.00
8402;DHT22;4238;48.404;9.498;2024-02-26T10:33:12;13.80;1.00
8402;DHT22;4238;48.404;9.498;2024-02-26T10:35:40;13.40;1.00
8402;DHT22;4238;48.404;9.498;2024-02-26T10:38:07;13.20;1.00
8402;DHT22;4238;48.404;9.498;2024-02-26T10:40:34;13.00;1.00
8402;DHT22;4238;48.404;9.498;2024-02-26T10:43:02;12.80;1.00
8402;DHT22;4238;48.404;9.498;2024-02-26T10:45:29;12.70;1.00
8402;DHT22;4238;48.404;9.498;2024-02-26T10:47:56;12.40;1.00
8402;DHT22;4238;48.404;9.498;2024-02-26T10:50:23;12.30;1.00
8402;DHT22;4238;48.404;9.498;2024-02-26T10:52:50;11.90;1.00
8402;DHT22;4238;48.404;9.498;2024-02-26T10:55:20;11.80;1.00
8402;DHT22;4238;48.404;9.498;2024-02-26T10:57:51;11.70;1.00
8402;DHT22;4238;48.404;9.498;2024-02-26T11:00:20;11.60;1.00
8402;DHT22;4238;48.404;9.498;2024-02-26T11:02:47;11.70;1.00
8402;DHT22;4238;48.404;9.498;2024-02-26T11:05:14;11.50;1.00
8402;DHT22;4238;48.404;9.498;2024-02-26T11:07:42;11.50;1.00
8402;DHT22;4238;48.404;9.498;2024-02-26T11:10:11;11.40;1.00
8402;DHT22;4238;48.404;9.498;2024-02-26T11:12:39;11.30;1.00
8402;DHT22;4238;48.404;9.498;2024-02-26T11:15:09;11.20;1.00
8402;DHT22;4238;48.404;9.498;2024-02-26T11:17:38;11.30;1.00
8402;DHT22;4238;48.404;9.498;2024-02-26T11:20:08;11.20;1.00
8402;DHT22;4238;48.404;9.498;2024-02-26T11:22:36;11.10;1.00
8402;DHT22;4238;48.404;9.498;2024-02-26T11:25:04;11.10;1.00
8402;DHT22;4238;48.404;9.498;2024-02-26T11:27:35;11.10;1.00
8402;DHT22;4238;48.404;9.498;2024-02-26T11:30:04;11.10;1.00
8402;DHT22;4238;48.404;9.498;2024-02-26T11:32:34;11.00;1.00
8402;DHT22;4238;48.404;9.498;2024-02-26T11:35:05;11.00;1.00
8402;DHT22;4238;48.404;9.498;2024-02-26T11:37:32;11.00;1.00
8402;DHT22;4238;48.404;9.498;2024-02-26T11:40:00;11.10;1.00
8402;DHT22;4238;48.404;9.498;2024-02-26T11:42:27;11.10;1.00
8402;DHT22;4238;48.404;9.498;2024-02-26T11:44:54;11.20;1.00
8402;DHT22;4238;48.404;9.498;2024-02-26T11:47:22;11.20;1.00
8402;DHT22;4238;48.404;9.498;2024-02-26T11:49:49;11.10;1.00
8402;DHT22;4238;48.404;9.498;2024-02-26T11:52:17;11.10;1.00
8402;DHT22;4238;48.404;9.498;2024-02-26T11:54:45;11.00;1.00
8402;DHT22;4238;48.404;9.498;2024-02-26T11:57:26;10.90;1.00
8402;DHT22;4238;48.404;9.498;2024-02-26T11:59:54;11.10;1.00
8402;DHT22;4238;48.404;9.498;2024-02-26T12:02:39;11.10;1.00
8402;DHT22;4238;48.404;9.498;2024-02-26T12:05:07;11.10;1.00
8402;DHT22;4238;48.404;9.498;2024-02-26T12:07:36;11.10;1.00
8402;DHT22;4238;48.404;9.498;2024-02-26T12:10:25;11.20;1.00
8402;DHT22;4238;48.404;9.498;2024-02-26T12:12:55;11.10;1.00
8402;DHT22;4238;48.404;9.498;2024-02-26T12:15:26;10.90;1.00
8402;DHT22;4238;48.404;9.498;2024-02-26T12:17:56;10.90;1.00
8402;DHT22;4238;48.404;9.498;2024-02-26T12:20:23;10.90;1.00
8402;DHT22;4238;48.404;9.498;2024-02-26T12:22:52;10.90;1.00
8402;DHT22;4238;48.404;9.498;2024-02-26T12:25:24;10.80;1.00
8402;DHT22;4238;48.404;9.498;2024-02-26T12:27:51;10.70;1.00
8402;DHT22;4238;48.404;9.498;2024-02-26T12:30:18;10.70;1.00
8402;DHT22;4238;48.404;9.498;2024-02-26T12:32:45;10.80;1.00
8402;DHT22;4238;48.404;9.498;2024-02-26T12:35:13;10.80;1.00
8402;DHT22;4238;48.404;9.498;2024-02-26T12:37:40;10.70;1.00
8402;DHT22;4238;48.404;9.498;2024-02-26T12:40:11;10.70;1.00
8402;DHT22;4238;48.404;9.498;2024-02-26T12:42:39;10.60;1.00
8402;DHT22;4238;48.404;9.498;2024-02-26T12:45:07;10.60;1.00
8402;DHT22;4238;48.404;9.498;2024-02-26T12:47:36;10.50;1.00
8402;DHT22;4238;48.404;9.498;2024-02-26T12:50:04;10.40;1.00
8402;DHT22;4238;48.404;9.498;2024-02-26T12:52:31;10.40;1.00
8402;DHT22;4238;48.404;9.498;2024-02-26T12:54:58;10.40;1.00
8402;DHT22;4238;48.404;9.498;2024-02-26T12:57:27;10.40;1.00
8402;DHT22;4238;48.404;9.498;2024-02-26T12:59:55;10.40;1.00
8402;DHT22;4238;48.404;9.498;2024-02-26T13:02:23;10.40;1.00
8402;DHT22;4238;48.404;9.498;2024-02-26T13:04:50;10.20;1.00
8402;DHT22;4238;48.404;9.498;2024-02-26T13:07:17;10.20;20.60
8402;DHT22;4238;48.404;9.498;2024-02-26T13:09:44;10.20;24.50
8402;DHT22;4238;48.404;9.498;2024-02-26T13:12:12;10.20;82.10
8402;DHT22;4238;48.404;9.498;2024-02-26T13:14:40;10.10;99.90
8402;DHT22;4238;48.404;9.498;2024-02-26T13:17:07;10.00;99.90
8402;DHT22;4238;48.404;9.498;2024-02-26T13:19:34;10.10;99.90
8402;DHT22;4238;48.404;9.498;2024-02-26T13:22:06;10.10;99.90
8402;DHT22;4238;48.404;9.498;2024-02-26T13:24:33;10.10;99.90
8402;DHT22;4238;48.404;9.498;2024-02-26T13:27:00;10.20;99.90
8402;DHT22;4238;48.404;9.498;2024-02-26T13:29:29;10.30;99.90
8402;DHT22;4238;48.404;9.498;2024-02-26T13:31:57;10.40;99.90
8402;DHT22;4238;48.404;9.498;2024-02-26T13:34:24;10.50;99.90
8402;DHT22;4238;48.404;9.498;2024-02-26T13:36:52;10.50;99.90
8402;DHT22;4238;48.404;9.498;2024-02-26T13:39:23;10.60;99.90
8402;DHT22;4238;48.404;9.498;2024-02-26T13:41:50;10.80;99.90
8402;DHT22;4238;48.404;9.498;2024-02-26T13:44:17;10.80;99.90
8402;DHT22;4238;48.404;9.498;2024-02-26T13:46:44;10.90;99.90
8402;DHT22;4238;48.404;9.498;2024-02-26T13:49:13;10.80;99.90
8402;DHT22;4238;48.404;9.498;2024-02-26T13:51:40;10.80;99.90
8402;DHT22;4238;48.404;9.498;2024-02-26T13:54:07;10.80;99.90
8402;DHT22;4238;48.404;9.498;2024-02-26T13:56:35;10.90;99.90
8402;DHT22;4238;48.404;9.498;2024-02-26T13:59:01;11.00;99.90
8402;DHT22;4238;48.404;9.498;2024-02-26T14:01:28;11.10;99.90
8402;DHT22;4238;48.404;9.498;2024-02-26T14:03:56;11.20;99.90
8402;DHT22;4238;48.404;9.498;2024-02-26T14:06:25;11.30;99.90
8402;DHT22;4238;48.404;9.498;2024-02-26T14:08:51;11.50;99.90
8402;DHT22;4238;48.404;9.498;2024-02-26T14:11:18;11.50;99.90
8402;DHT22;4238;48.404;9.498;2024-02-26T14:13:45;11.50;99.90
8402;DHT22;4238;48.404;9.498;2024-02-26T14:16:13;11.30;99.90
8402;DHT22;4238;48.404;9.498;2024-02-26T14:18:40;11.20;99.90
8402;DHT22;4238;48.404;9.498;2024-02-26T14:21:09;11.20;99.90
8402;DHT22;4238;48.404;9.498;2024-02-26T14:23:38;11.40;99.90
8402;DHT22;4238;48.404;9.498;2024-02-26T14:26:05;11.20;99.90
8402;DHT22;4238;48.404;9.498;2024-02-26T14:28:32;11.10;99.90
8402;DHT22;4238;48.404;9.498;2024-02-26T14:31:00;11.10;99.90
8402;DHT22;4238;48.404;9.498;2024-02-26T14:33:26;11.10;99.90
8402;DHT22;4238;48.404;9.498;2024-02-26T14:35:53;11.10;99.90
8402;DHT22;4238;48.404;9.498;2024-02-26T14:38:20;11.00;99.90
8402;DHT22;4238;48.404;9.498;2024-02-26T14:40:50;10.90;99.90
8402;DHT22;4238;48.404;9.498;2024-02-26T14:43:17;10.70;99.90
8402;DHT22;4238;48.404;9.498;2024-02-26T14:45:44;10.50;99.90
8402;DHT22;4238;48.404;9.498;2024-02-26T14:48:11;10.40;99.90
8402;DHT22;4238;48.404;9.498;2024-02-26T14:50:37;10.50;99.90
8402;DHT22;4238;48.404;9.498;2024-02-26T14:53:04;10.50;1.00
8402;DHT22;4238;48.404;9.498;2024-02-26T14:55:31;10.50;1.00
8402;DHT22;4238;48.404;9.498;2024-02-26T14:58:01;10.40;1.00
8402;DHT22;4238;48.404;9.498;2024-02-26T15:00:28;10.40;1.00
8402;DHT22;4238;48.404;9.498;2024-02-26T15:02:54;10.40;1.00
8402;DHT22;4238;48.404;9.498;2024-02-26T15:05:21;10.30;1.00
8402;DHT22;4238;48.404;9.498;2024-02-26T15:07:49;10.20;1.00
8402;DHT22;4238;48.404;9.498;2024-02-26T15:10:16;10.10;1.00
8402;DHT22;4238;48.404;9.498;2024-02-26T15:12:44;10.00;1.00
8402;DHT22;4238;48.404;9.498;2024-02-26T15:15:13;9.80;1.00
8402;DHT22;4238;48.404;9.498;2024-02-26T15:17:40;9.80;1.00
8402;DHT22;4238;48.404;9.498;2024-02-26T15:20:08;9.70;1.00
8402;DHT22;4238;48.404;9.498;2024-02-26T15:22:37;9.70;1.00
8402;DHT22;4238;48.404;9.498;2024-02-26T15:25:04;9.70;1.00
8402;DHT22;4238;48.404;9.498;2024-02-26T15:27:31;9.60;1.00
8402;DHT22;4238;48.404;9.498;2024-02-26T15:29:57;9.50;1.00
8402;DHT22;4238;48.404;9.498;2024-02-26T15:32:27;9.40;1.00
8402;DHT22;4238;48.404;9.498;2024-02-26T15:34:53;9.30;1.00
8402;DHT22;4238;48.404;9.498;2024-02-26T15:37:21;9.20;1.00
8402;DHT22;4238;48.404;9.498;2024-02-26T15:39:48;9.20;1.00
8402;DHT22;4238;48.404;9.498;2024-02-26T15:42:15;9.00;1.00
8402;DHT22;4238;48.404;9.498;2024-02-26T15:44:41;9.00;1.00
8402;DHT22;4238;48.404;9.498;2024-02-26T15:47:08;8.90;1.00
8402;DHT22;4238;48.404;9.498;2024-02-26T15:49:37;8.80;1.00
8402;DHT22;4238;48.404;9.498;2024-02-26T15:52:04;8.90;1.00
8402;DHT22;4238;48.404;9.498;2024-02-26T15:54:31;8.80;1.00
8402;DHT22;4238;48.404;9.498;2024-02-26T15:56:57;8.70;1.00
8402;DHT22;4238;48.404;9.498;2024-02-26T15:59:24;8.70;16.30
8402;DHT22;4238;48.404;9.498;2024-02-26T16:01:51;8.60;52.60
8402;DHT22;4238;48.404;9.498;2024-02-26T16:04:18;8.50;99.90
8402;DHT22;4238;48.404;9.498;2024-02-26T16:06:50;8.50;99.90
8402;DHT22;4238;48.404;9.498;2024-02-26T16:09:18;8.50;99.90
8402;DHT22;4238;48.404;9.498;2024-02-26T16:11:45;8.50;99.90
8402;DHT22;4238;48.404;9.498;2024-02-26T16:14:19;8.50;99.90
8402;DHT22;4238;48.404;9.498;2024-02-26T16:16:55;8.40;99.90
8402;DHT22;4238;48.404;9.498;2024-02-26T16:19:25;8.40;99.90
8402;DHT22;4238;48.404;9.498;2024-02-26T16:21:53;8.30;1.00
8402;DHT22;4238;48.404;9.498;2024-02-26T16:24:20;8.30;1.00
8402;DHT22;4238;48.404;9.498;2024-02-26T16:26:47;8.20;1.00
8402;DHT22;4238;48.404;9.498;2024-02-26T16:29:14;8.20;1.00
8402;DHT22;4238;48.404;9.498;2024-02-26T16:31:42;8.20;3.80
8402;DHT22;4238;48.404;9.498;2024-02-26T16:34:09;8.20;1.00
8402;DHT22;4238;48.404;9.498;2024-02-26T16:36:35;8.20;13.60
8402;DHT22;4238;48.404;9.498;2024-02-26T16:39:04;8.20;99.90
8402;DHT22;4238;48.404;9.498;2024-02-26T16:41:33;8.10;99.90
8402;DHT22;4238;48.404;9.498;2024-02-26T16:44:00;8.10;99.90
8402;DHT22;4238;48.404;9.498;2024-02-26T16:46:27;8.10;99.90
8402;DHT22;4238;48.404;9.498;2024-02-26T16:48:54;8.10;1.00
8402;DHT22;4238;48.404;9.498;2024-02-26T16:51:21;8.00;1.00
8402;DHT22;4238;48.404;9.498;2024-02-26T16:53:48;8.00;1.00
8402;DHT22;4238;48.404;9.498;2024-02-26T16:56:16;7.90;99.90
8402;DHT22;4238;48.404;9.498;2024-02-26T16:58:43;7.90;99.90
8402;DHT22;4238;48.404;9.498;2024-02-26T17:01:10;7.90;99.90
8402;DHT22;4238;48.404;9.498;2024-02-26T17:03:38;7.80;99.90
8402;DHT22;4238;48.404;9.498;2024-02-26T17:06:05;7.70;99.90
8402;DHT22;4238;48.404;9.498;2024-02-26T17:08:32;7.80;99.90
8402;DHT22;4238;48.404;9.498;2024-02-26T17:11:01;7.70;99.90
8402;DHT22;4238;48.404;9.498;2024-02-26T17:13:31;7.70;99.90
8402;DHT22;4238;48.404;9.498;2024-02-26T17:15:58;7.70;99.90
8402;DHT22;4238;48.404;9.498;2024-02-26T17:18:24;7.70;99.90
8402;DHT22;4238;48.404;9.498;2024-02-26T17:20:51;7.60;99.90
8402;DHT22;4238;48.404;9.498;2024-02-26T17:23:21;7.70;99.90
8402;DHT22;4238;48.404;9.498;2024-02-26T17:25:47;7.60;1.00
8402;DHT22;4238;48.404;9.498;2024-02-26T17:28:14;7.60;1.00
8402;DHT22;4238;48.404;9.498;2024-02-26T17:30:43;7.60;1.00
8402;DHT22;4238;48.404;9.498;2024-02-26T17:33:11;7.70;1.00
8402;DHT22;4238;48.404;9.498;2024-02-26T17:35:37;7.70;1.00
8402;DHT22;4238;48.404;9.498;2024-02-26T17:38:04;7.70;99.90
8402;DHT22;4238;48.404;9.498;2024-02-26T17:40:31;7.70;1.00
8402;DHT22;4238;48.404;9.498;2024-02-26T17:42:58;7.70;1.00
8402;DHT22;4238;48.404;9.498;2024-02-26T17:45:25;7.60;1.00
8402;DHT22;4238;48.404;9.498;2024-02-26T17:47:53;7.60;1.00
8402;DHT22;4238;48.404;9.498;2024-02-26T17:50:20;7.60;1.00
8402;DHT22;4238;48.404;9.498;2024-02-26T17:52:48;7.60;99.90
8402;DHT22;4238;48.404;9.498;2024-02-26T17:55:18;7.50;99.90
8402;DHT22;4238;48.404;9.498;2024-02-26T17:57:45;7.50;1.00
8402;DHT22;4238;48.404;9.498;2024-02-26T18:00:27;7.50;99.90
8402;DHT22;4238;48.404;9.498;2024-02-26T18:03:04;7.40;1.00
8402;DHT22;4238;48.404;9.498;2024-02-26T18:05:33;7.50;1.00
8402;DHT22;4238;48.404;9.498;2024-02-26T18:07:59;7.50;1.00
8402;DHT22;4238;48.404;9.498;2024-02-26T18:10:26;7.40;1.00
8402;DHT22;4238;48.404;9.498;2024-02-26T18:12:54;7.30;1.00
8402;DHT22;4238;48.404;9.498;2024-02-26T18:15:24;7.30;1.00
8402;DHT22;4238;48.404;9.498;2024-02-26T18:17:50;7.30;1.00
8402;DHT22;4238;48.404;9.498;2024-02-26T18:20:19;7.20;1.00
8402;DHT22;4238;48.404;9.498;2024-02-26T18:22:46;7.20;1.00
8402;DHT22;4238;48.404;9.498;2024-02-26T18:25:13;7.20;1.00
8402;DHT22;4238;48.404;9.498;2024-02-26T18:27:40;7.00;1.00
8402;DHT22;4238;48.404;9.498;2024-02-26T18:30:08;7.10;1.00
8402;DHT22;4238;48.404;9.498;2024-02-26T18:32:35;7.10;10.50
8402;DHT22;4238;48.404;9.498;2024-02-26T18:35:02;6.90;12.30
8402;DHT22;4238;48.404;9.498;2024-02-26T18:37:31;7.00;15.50
8402;DHT22;4238;48.404;9.498;2024-02-26T18:39:58;6.90;20.00
8402;DHT22;4238;48.404;9.498;2024-02-26T18:42:27;6.80;24.50
8402;DHT22;4238;48.404;9.498;2024-02-26T18:44:54;6.90;29.90
8402;DHT22;4238;48.404;9.498;2024-02-26T18:47:22;6.80;30.00
8402;DHT22;4238;48.404;9.498;2024-02-26T18:49:49;6.90;29.80
8402;DHT22;4238;48.404;9.498;2024-02-26T18:52:16;6.90;22.80
8402;DHT22;4238;48.404;9.498;2024-02-26T18:54:44;6.80;29.20
8402;DHT22;4238;48.404;9.498;2024-02-26T18:57:12;6.80;36.10
8402;DHT22;4238;48.404;9.498;2024-02-26T18:59:38;6.80;36.90
8402;DHT22;4238;48.404;9.498;2024-02-26T19:02:06;6.80;36.20
8402;DHT22;4238;48.404;9.498;2024-02-26T19:04:33;6.90;29.40
8402;DHT22;4238;48.404;9.498;2024-02-26T19:07:00;7.00;22.40
8402;DHT22;4238;48.404;9.498;2024-02-26T19:09:27;7.00;18.10
8402;DHT22;4238;48.404;9.498;2024-02-26T19:11:55;7.00;13.30
8402;DHT22;4238;48.404;9.498;2024-02-26T19:14:22;6.90;19.00
8402;DHT22;4238;48.404;9.498;2024-02-26T19:16:49;6.80;21.60
8402;DHT22;4238;48.404;9.498;2024-02-26T19:19:15;6.60;28.60
8402;DHT22;4238;48.404;9.498;2024-02-26T19:21:42;6.60;29.90
8402;DHT22;4238;48.404;9.498;2024-02-26T19:24:09;6.60;33.20
8402;DHT22;4238;48.404;9.498;2024-02-26T19:26:36;6.60;30.00
8402;DHT22;4238;48.404;9.498;2024-02-26T19:29:07;6.60;35.10
8402;DHT22;4238;48.404;9.498;2024-02-26T19:31:34;6.60;31.90
8402;DHT22;4238;48.404;9.498;2024-02-26T19:34:01;6.60;34.50
8402;DHT22;4238;48.404;9.498;2024-02-26T19:36:28;6.70;29.40
8402;DHT22;4238;48.404;9.498;2024-02-26T19:38:55;6.60;33.80
8402;DHT22;4238;48.404;9.498;2024-02-26T19:41:22;6.40;39.40
8402;DHT22;4238;48.404;9.498;2024-02-26T19:43:49;6.50;42.10
8402;DHT22;4238;48.404;9.498;2024-02-26T19:46:17;6.50;37.70
8402;DHT22;4238;48.404;9.498;2024-02-26T19:48:43;6.40;39.40
8402;DHT22;4238;48.404;9.498;2024-02-26T19:51:15;6.40;42.80
8402;DHT22;4238;48.404;9.498;2024-02-26T19:53:42;6.50;39.80
8402;DHT22;4238;48.404;9.498;2024-02-26T19:56:09;6.40;42.90
8402;DHT22;4238;48.404;9.498;2024-02-26T19:58:35;6.40;40.70
8402;DHT22;4238;48.404;9.498;2024-02-26T20:01:03;6.40;40.20
8402;DHT22;4238;48.404;9.498;2024-02-26T20:03:31;6.40;40.40
8402;DHT22;4238;48.404;9.498;2024-02-26T20:05:58;6.50;39.80
8402;DHT22;4238;48.404;9.498;2024-02-26T20:08:25;6.50;38.30
8402;DHT22;4238;48.404;9.498;2024-02-26T20:10:52;6.50;38.10
8402;DHT22;4238;48.404;9.498;2024-02-26T20:13:20;6.50;43.40
8402;DHT22;4238;48.404;9.498;2024-02-26T20:15:52;6.50;46.60
8402;DHT22;4238;48.404;9.498;2024-02-26T20:18:19;6.50;45.60
8402;DHT22;4238;48.404;9.498;2024-02-26T20:20:47;6.50;51.20
8402;DHT22;4238;48.404;9.498;2024-02-26T20:23:14;6.50;54.90
8402;DHT22;4238;48.404;9.498;2024-02-26T20:25:41;6.50;58.30
8402;DHT22;4238;48.404;9.498;2024-02-26T20:28:08;6.50;55.20
8402;DHT22;4238;48.404;9.498;2024-02-26T20:30:36;6.50;62.30
8402;DHT22;4238;48.404;9.498;2024-02-26T20:33:03;6.50;55.50
8402;DHT22;4238;48.404;9.498;2024-02-26T20:35:30;6.40;59.70
8402;DHT22;4238;48.404;9.498;2024-02-26T20:37:59;6.40;59.20
8402;DHT22;4238;48.404;9.498;2024-02-26T20:40:25;6.40;59.80
8402;DHT22;4238;48.404;9.498;2024-02-26T20:42:52;6.40;59.20
8402;DHT22;4238;48.404;9.498;2024-02-26T20:45:20;6.40;59.30
8402;DHT22;4238;48.404;9.498;2024-02-26T20:47:47;6.30;53.80
8402;DHT22;4238;48.404;9.498;2024-02-26T20:50:18;6.40;54.10
8402;DHT22;4238;48.404;9.498;2024-02-26T20:52:45;6.40;47.10
8402;DHT22;4238;48.404;9.498;2024-02-26T20:55:14;6.40;47.40
8402;DHT22;4238;48.404;9.498;2024-02-26T20:57:41;6.40;45.80
8402;DHT22;4238;48.404;9.498;2024-02-26T21:00:09;6.40;44.30
8402;DHT22;4238;48.404;9.498;2024-02-26T21:02:36;6.40;40.70
8402;DHT22;4238;48.404;9.498;2024-02-26T21:05:03;6.40;37.10
8402;DHT22;4238;48.404;9.498;2024-02-26T21:07:30;6.40;36.30
8402;DHT22;4238;48.404;9.498;2024-02-26T21:09:57;6.50;31.30
8402;DHT22;4238;48.404;9.498;2024-02-26T21:12:25;6.50;27.80
8402;DHT22;4238;48.404;9.498;2024-02-26T21:14:52;6.50;31.10
8402;DHT22;4238;48.404;9.498;2024-02-26T21:17:19;6.50;30.50
8402;DHT22;4238;48.404;9.498;2024-02-26T21:19:46;6.50;24.60
8402;DHT22;4238;48.404;9.498;2024-02-26T21:22:13;6.50;32.30
8402;DHT22;4238;48.404;9.498;2024-02-26T21:24:40;6.60;26.60